Airfield :
LOGIN :

Register | Disclaimer

   EN    FR    IT 

 










Legend :    VFR   Marginal VFR   IFR   Intensive IFR   Very Intensive IFR
Visi :
Ceiling :
>= 8 km
>= 3000ft
5 to 8 km
1000 to 3000 ft
1500m to 5 km
500 to 1000 ft
800 to 1500m
200 to 500 ft
< 800m
< 200 ft
Symbols :   Thunderstorms  Fog  Heavy snow  Heavy precipitations  Wind > 20 kt
SIGMETs :     Misc.  Thunderstorms  Icing  Turbulence  Mountain Waves  Volcanic Ashes






- Airport Elevation : 197 ft
- IATA code : XOG


LFMO - Orange

CURRENT METAR :
  • 192100Z AUTO 21003KT 170V260 CAVOK 24/18 Q1014 NOSIG

EXPIRED METARs :
  • 192030Z AUTO VRB02KT CAVOK 24/19 Q1014 TEMPO 18015G25KT
  • 192000Z AUTO 20004KT 160V230 CAVOK 24/19 Q1014 TEMPO 18015G25KT
  • 191930Z AUTO 16005KT 130V200 CAVOK 24/18 Q1014 TEMPO 18015G25KT
  • 191900Z AUTO 17007KT 140V200 CAVOK 25/18 Q1014 TEMPO 18015G25KT
  • 191830Z AUTO 18008KT 150V220 CAVOK 26/17 Q1014 TEMPO 18015G25KT

TAF TAF LFMO
Valid from the 19 at 21:00 until the 20 at 21:00 UTC


192000Z 1921/2021 20008KT CAVOK TX28/2015Z TN19/2003Z
PROB30
TEMPO 2002/2021 SHRA BKN070TCU
PROB30
TEMPO 2009/2021 16015G30KT 3000 TSRA SCT060CB



MET'MAP, your aeronautical weather chart ! - Copyright ORBIFLY December 2007 - Disclaimer

ORBIFLY MET'MAP TEAM :

Programming & Development : Alexandra Zaïnal
Concept & original design : Baudouin d'Aumeries
Assistance for programming : Marc-Olivier Méhu
Technical & hardware support : Manuel Goepfert

Contact : metmap@orbifly.com




SOURCES & CREDITS :

   NOAA